sensor_id;sensor_type;location;lat;lon;timestamp;temperature;humidity
31379;DHT22;61664;48.112;11.662;2023-06-10T00:01:44;21.00;52.60
31379;DHT22;61664;48.112;11.662;2023-06-10T00:04:14;20.90;52.70
31379;DHT22;61664;48.112;11.662;2023-06-10T00:06:44;20.90;52.70
31379;DHT22;61664;48.112;11.662;2023-06-10T00:09:11;20.80;52.80
31379;DHT22;61664;48.112;11.662;2023-06-10T00:11:38;20.80;52.90
31379;DHT22;61664;48.112;11.662;2023-06-10T00:14:05;20.80;53.00
31379;DHT22;61664;48.112;11.662;2023-06-10T00:16:34;20.80;53.20
31379;DHT22;61664;48.112;11.662;2023-06-10T00:19:02;20.70;53.20
31379;DHT22;61664;48.112;11.662;2023-06-10T00:21:32;20.70;53.30
31379;DHT22;61664;48.112;11.662;2023-06-10T00:24:07;20.60;53.40
31379;DHT22;61664;48.112;11.662;2023-06-10T00:26:41;20.60;53.40
31379;DHT22;61664;48.112;11.662;2023-06-10T00:29:08;20.50;54.00
31379;DHT22;61664;48.112;11.662;2023-06-10T00:31:36;20.50;53.60
31379;DHT22;61664;48.112;11.662;2023-06-10T00:34:04;20.50;53.70
31379;DHT22;61664;48.112;11.662;2023-06-10T00:36:31;20.50;53.80
31379;DHT22;61664;48.112;11.662;2023-06-10T00:38:58;20.50;53.80
31379;DHT22;61664;48.112;11.662;2023-06-10T00:41:25;20.50;53.80
31379;DHT22;61664;48.112;11.662;2023-06-10T00:43:55;20.40;53.80
31379;DHT22;61664;48.112;11.662;2023-06-10T00:46:23;20.40;53.80
31379;DHT22;61664;48.112;11.662;2023-06-10T00:48:52;20.40;53.90
31379;DHT22;61664;48.112;11.662;2023-06-10T00:51:20;20.30;53.80
31379;DHT22;61664;48.112;11.662;2023-06-10T00:53:48;20.30;53.90
31379;DHT22;61664;48.112;11.662;2023-06-10T00:56:16;20.30;54.00
31379;DHT22;61664;48.112;11.662;2023-06-10T00:58:43;20.20;54.10
31379;DHT22;61664;48.112;11.662;2023-06-10T01:01:10;20.20;54.10
31379;DHT22;61664;48.112;11.662;2023-06-10T01:03:39;20.20;54.20
31379;DHT22;61664;48.112;11.662;2023-06-10T01:06:30;20.20;54.30
31379;DHT22;61664;48.112;11.662;2023-06-10T01:09:18;20.20;54.50
31379;DHT22;61664;48.112;11.662;2023-06-10T01:12:01;20.10;54.40
31379;DHT22;61664;48.112;11.662;2023-06-10T01:14:38;20.10;54.30
31379;DHT22;61664;48.112;11.662;2023-06-10T01:17:11;20.10;54.40
31379;DHT22;61664;48.112;11.662;2023-06-10T01:19:39;20.00;54.40
31379;DHT22;61664;48.112;11.662;2023-06-10T01:22:07;19.90;54.40
31379;DHT22;61664;48.112;11.662;2023-06-10T01:24:34;19.90;54.60
31379;DHT22;61664;48.112;11.662;2023-06-10T01:27:05;19.90;54.70
31379;DHT22;61664;48.112;11.662;2023-06-10T01:29:59;19.80;54.90
31379;DHT22;61664;48.112;11.662;2023-06-10T01:32:37;19.80;55.00
31379;DHT22;61664;48.112;11.662;2023-06-10T01:35:10;19.80;55.10
31379;DHT22;61664;48.112;11.662;2023-06-10T01:37:39;19.70;55.10
31379;DHT22;61664;48.112;11.662;2023-06-10T01:40:08;19.70;55.20
31379;DHT22;61664;48.112;11.662;2023-06-10T01:42:36;19.70;55.30
31379;DHT22;61664;48.112;11.662;2023-06-10T01:45:04;19.70;55.30
31379;DHT22;61664;48.112;11.662;2023-06-10T01:47:32;19.70;55.40
31379;DHT22;61664;48.112;11.662;2023-06-10T01:49:59;19.60;55.40
31379;DHT22;61664;48.112;11.662;2023-06-10T01:52:26;19.60;55.50
31379;DHT22;61664;48.112;11.662;2023-06-10T01:54:53;19.60;55.50
31379;DHT22;61664;48.112;11.662;2023-06-10T01:57:20;19.50;55.60
31379;DHT22;61664;48.112;11.662;2023-06-10T01:59:47;19.50;55.60
31379;DHT22;61664;48.112;11.662;2023-06-10T02:02:14;19.50;55.70
31379;DHT22;61664;48.112;11.662;2023-06-10T02:04:41;19.40;55.80
31379;DHT22;61664;48.112;11.662;2023-06-10T02:07:08;19.40;55.90
31379;DHT22;61664;48.112;11.662;2023-06-10T02:09:34;19.30;55.90
31379;DHT22;61664;48.112;11.662;2023-06-10T02:12:04;19.30;56.00
31379;DHT22;61664;48.112;11.662;2023-06-10T02:14:32;19.30;56.10
31379;DHT22;61664;48.112;11.662;2023-06-10T02:17:00;19.20;56.10
31379;DHT22;61664;48.112;11.662;2023-06-10T02:19:27;19.20;56.20
31379;DHT22;61664;48.112;11.662;2023-06-10T02:21:55;19.10;56.30
31379;DHT22;61664;48.112;11.662;2023-06-10T02:24:21;19.00;56.30
31379;DHT22;61664;48.112;11.662;2023-06-10T02:26:48;19.00;56.40
31379;DHT22;61664;48.112;11.662;2023-06-10T02:29:18;19.00;56.40
31379;DHT22;61664;48.112;11.662;2023-06-10T02:31:45;18.90;56.50
31379;DHT22;61664;48.112;11.662;2023-06-10T02:34:12;18.90;56.60
31379;DHT22;61664;48.112;11.662;2023-06-10T02:36:39;18.90;56.70
31379;DHT22;61664;48.112;11.662;2023-06-10T02:39:05;18.90;56.80
31379;DHT22;61664;48.112;11.662;2023-06-10T02:41:32;18.90;56.90
31379;DHT22;61664;48.112;11.662;2023-06-10T02:43:59;18.80;57.00
31379;DHT22;61664;48.112;11.662;2023-06-10T02:46:26;18.80;57.10
31379;DHT22;61664;48.112;11.662;2023-06-10T02:48:55;18.80;57.60
31379;DHT22;61664;48.112;11.662;2023-06-10T02:51:22;18.70;57.10
31379;DHT22;61664;48.112;11.662;2023-06-10T02:53:49;18.70;57.10
31379;DHT22;61664;48.112;11.662;2023-06-10T02:56:17;18.70;57.20
31379;DHT22;61664;48.112;11.662;2023-06-10T02:58:45;18.60;57.30
31379;DHT22;61664;48.112;11.662;2023-06-10T03:01:13;18.60;57.30
31379;DHT22;61664;48.112;11.662;2023-06-10T03:03:40;18.50;57.40
31379;DHT22;61664;48.112;11.662;2023-06-10T03:06:13;18.50;57.40
31379;DHT22;61664;48.112;11.662;2023-06-10T03:08:40;18.50;57.80
31379;DHT22;61664;48.112;11.662;2023-06-10T03:11:07;18.50;56.80
31379;DHT22;61664;48.112;11.662;2023-06-10T03:13:34;18.50;57.50
31379;DHT22;61664;48.112;11.662;2023-06-10T03:16:01;18.40;57.60
31379;DHT22;61664;48.112;11.662;2023-06-10T03:18:29;18.40;57.80
31379;DHT22;61664;48.112;11.662;2023-06-10T03:20:57;18.40;57.90
31379;DHT22;61664;48.112;11.662;2023-06-10T03:23:24;18.40;58.00
31379;DHT22;61664;48.112;11.662;2023-06-10T03:25:51;18.40;58.10
31379;DHT22;61664;48.112;11.662;2023-06-10T03:28:18;18.40;58.20
31379;DHT22;61664;48.112;11.662;2023-06-10T03:30:44;18.30;58.20
31379;DHT22;61664;48.112;11.662;2023-06-10T03:33:11;18.30;58.30
31379;DHT22;61664;48.112;11.662;2023-06-10T03:35:38;18.30;58.40
31379;DHT22;61664;48.112;11.662;2023-06-10T03:38:06;18.30;58.50
31379;DHT22;61664;48.112;11.662;2023-06-10T03:40:33;18.30;58.50
31379;DHT22;61664;48.112;11.662;2023-06-10T03:43:00;18.30;58.60
31379;DHT22;61664;48.112;11.662;2023-06-10T03:45:27;18.30;58.80
31379;DHT22;61664;48.112;11.662;2023-06-10T03:47:57;18.30;58.80
31379;DHT22;61664;48.112;11.662;2023-06-10T03:50:24;18.30;59.00
31379;DHT22;61664;48.112;11.662;2023-06-10T03:52:51;18.30;59.10
31379;DHT22;61664;48.112;11.662;2023-06-10T03:55:18;18.30;59.20
31379;DHT22;61664;48.112;11.662;2023-06-10T03:57:49;18.30;59.40
31379;DHT22;61664;48.112;11.662;2023-06-10T04:00:16;18.30;59.50
31379;DHT22;61664;48.112;11.662;2023-06-10T04:02:44;18.30;59.50
31379;DHT22;61664;48.112;11.662;2023-06-10T04:05:16;18.40;59.60
31379;DHT22;61664;48.112;11.662;2023-06-10T04:07:45;18.40;59.80
31379;DHT22;61664;48.112;11.662;2023-06-10T04:10:12;18.40;59.80
31379;DHT22;61664;48.112;11.662;2023-06-10T04:12:41;18.40;60.00
31379;DHT22;61664;48.112;11.662;2023-06-10T04:15:08;18.50;60.10
31379;DHT22;61664;48.112;11.662;2023-06-10T04:17:36;18.50;60.20
31379;DHT22;61664;48.112;11.662;2023-06-10T04:20:04;18.50;60.30
31379;DHT22;61664;48.112;11.662;2023-06-10T04:22:34;18.60;60.40
31379;DHT22;61664;48.112;11.662;2023-06-10T04:25:01;18.60;60.50
31379;DHT22;61664;48.112;11.662;2023-06-10T04:27:29;18.70;60.60
31379;DHT22;61664;48.112;11.662;2023-06-10T04:29:57;18.80;60.70
31379;DHT22;61664;48.112;11.662;2023-06-10T04:32:23;18.90;60.80
31379;DHT22;61664;48.112;11.662;2023-06-10T04:34:51;18.90;60.80
31379;DHT22;61664;48.112;11.662;2023-06-10T04:37:17;18.90;60.80
31379;DHT22;61664;48.112;11.662;2023-06-10T04:39:45;19.00;60.90
31379;DHT22;61664;48.112;11.662;2023-06-10T04:42:12;19.10;60.90
31379;DHT22;61664;48.112;11.662;2023-06-10T04:44:39;19.20;60.90
31379;DHT22;61664;48.112;11.662;2023-06-10T04:47:07;19.20;60.90
31379;DHT22;61664;48.112;11.662;2023-06-10T04:49:34;19.30;61.00
31379;DHT22;61664;48.112;11.662;2023-06-10T04:52:03;19.40;61.00
31379;DHT22;61664;48.112;11.662;2023-06-10T04:54:31;19.40;60.90
31379;DHT22;61664;48.112;11.662;2023-06-10T04:56:59;19.50;60.90
31379;DHT22;61664;48.112;11.662;2023-06-10T04:59:26;19.60;60.90
31379;DHT22;61664;48.112;11.662;2023-06-10T05:01:54;19.60;61.00
31379;DHT22;61664;48.112;11.662;2023-06-10T05:04:21;19.60;60.90
31379;DHT22;61664;48.112;11.662;2023-06-10T05:06:48;19.70;61.00
31379;DHT22;61664;48.112;11.662;2023-06-10T05:09:15;19.80;61.20
31379;DHT22;61664;48.112;11.662;2023-06-10T05:11:42;19.80;61.10
31379;DHT22;61664;48.112;11.662;2023-06-10T05:14:09;19.90;61.20
31379;DHT22;61664;48.112;11.662;2023-06-10T05:16:36;20.00;61.20
31379;DHT22;61664;48.112;11.662;2023-06-10T05:19:03;20.10;61.20
31379;DHT22;61664;48.112;11.662;2023-06-10T05:21:33;20.20;61.10
31379;DHT22;61664;48.112;11.662;2023-06-10T05:24:00;20.30;60.40
31379;DHT22;61664;48.112;11.662;2023-06-10T05:26:28;20.30;60.60
31379;DHT22;61664;48.112;11.662;2023-06-10T05:28:55;20.40;60.80
31379;DHT22;61664;48.112;11.662;2023-06-10T05:31:23;20.40;60.80
31379;DHT22;61664;48.112;11.662;2023-06-10T05:33:50;20.40;60.80
31379;DHT22;61664;48.112;11.662;2023-06-10T05:36:17;20.50;60.90
31379;DHT22;61664;48.112;11.662;2023-06-10T05:38:43;20.60;61.00
31379;DHT22;61664;48.112;11.662;2023-06-10T05:41:10;20.70;61.10
31379;DHT22;61664;48.112;11.662;2023-06-10T05:43:37;20.70;60.90
31379;DHT22;61664;48.112;11.662;2023-06-10T05:46:04;20.80;60.70
31379;DHT22;61664;48.112;11.662;2023-06-10T05:48:31;20.80;60.70
31379;DHT22;61664;48.112;11.662;2023-06-10T05:50:58;20.90;60.70
31379;DHT22;61664;48.112;11.662;2023-06-10T05:53:25;21.00;60.60
31379;DHT22;61664;48.112;11.662;2023-06-10T05:55:52;21.10;60.60
31379;DHT22;61664;48.112;11.662;2023-06-10T05:58:24;21.10;60.60
31379;DHT22;61664;48.112;11.662;2023-06-10T06:00:51;21.20;60.70
31379;DHT22;61664;48.112;11.662;2023-06-10T06:03:18;21.20;60.70
31379;DHT22;61664;48.112;11.662;2023-06-10T06:05:45;21.30;60.70
31379;DHT22;61664;48.112;11.662;2023-06-10T06:08:12;21.40;60.60
31379;DHT22;61664;48.112;11.662;2023-06-10T06:10:45;21.40;60.40
31379;DHT22;61664;48.112;11.662;2023-06-10T06:13:15;21.50;60.30
31379;DHT22;61664;48.112;11.662;2023-06-10T06:15:42;21.60;60.20
31379;DHT22;61664;48.112;11.662;2023-06-10T06:18:09;21.60;60.10
31379;DHT22;61664;48.112;11.662;2023-06-10T06:20:36;21.70;60.00
31379;DHT22;61664;48.112;11.662;2023-06-10T06:23:03;21.80;60.10
31379;DHT22;61664;48.112;11.662;2023-06-10T06:25:30;21.80;60.00
31379;DHT22;61664;48.112;11.662;2023-06-10T06:27:57;21.80;59.90
31379;DHT22;61664;48.112;11.662;2023-06-10T06:30:24;21.90;59.90
31379;DHT22;61664;48.112;11.662;2023-06-10T06:32:51;21.90;59.80
31379;DHT22;61664;48.112;11.662;2023-06-10T06:35:18;22.00;59.80
31379;DHT22;61664;48.112;11.662;2023-06-10T06:37:45;22.10;59.80
31379;DHT22;61664;48.112;11.662;2023-06-10T06:40:12;22.10;59.80
31379;DHT22;61664;48.112;11.662;2023-06-10T06:42:39;22.10;59.70
31379;DHT22;61664;48.112;11.662;2023-06-10T06:45:07;22.20;59.60
31379;DHT22;61664;48.112;11.662;2023-06-10T06:47:34;22.20;59.40
31379;DHT22;61664;48.112;11.662;2023-06-10T06:50:01;22.20;59.40
31379;DHT22;61664;48.112;11.662;2023-06-10T06:52:28;22.20;59.20
31379;DHT22;61664;48.112;11.662;2023-06-10T06:54:55;22.20;59.30
31379;DHT22;61664;48.112;11.662;2023-06-10T06:57:22;22.20;59.20
31379;DHT22;61664;48.112;11.662;2023-06-10T06:59:49;22.30;59.70
31379;DHT22;61664;48.112;11.662;2023-06-10T07:02:16;22.30;59.20
31379;DHT22;61664;48.112;11.662;2023-06-10T07:04:45;22.30;59.20
31379;DHT22;61664;48.112;11.662;2023-06-10T07:07:13;22.40;59.40
31379;DHT22;61664;48.112;11.662;2023-06-10T07:09:41;22.40;59.50
31379;DHT22;61664;48.112;11.662;2023-06-10T07:12:09;22.50;59.40
31379;DHT22;61664;48.112;11.662;2023-06-10T07:14:36;22.60;59.40
31379;DHT22;61664;48.112;11.662;2023-06-10T07:17:03;22.70;59.50
31379;DHT22;61664;48.112;11.662;2023-06-10T07:19:30;22.80;59.20
31379;DHT22;61664;48.112;11.662;2023-06-10T07:21:57;22.90;59.10
31379;DHT22;61664;48.112;11.662;2023-06-10T07:24:24;23.00;59.10
31379;DHT22;61664;48.112;11.662;2023-06-10T07:26:51;23.10;59.20
31379;DHT22;61664;48.112;11.662;2023-06-10T07:29:18;23.30;59.00
31379;DHT22;61664;48.112;11.662;2023-06-10T07:31:45;23.40;58.90
31379;DHT22;61664;48.112;11.662;2023-06-10T07:34:11;23.50;58.70
31379;DHT22;61664;48.112;11.662;2023-06-10T07:36:38;23.70;58.60
31379;DHT22;61664;48.112;11.662;2023-06-10T07:39:05;23.80;58.20
31379;DHT22;61664;48.112;11.662;2023-06-10T07:41:33;24.00;58.10
31379;DHT22;61664;48.112;11.662;2023-06-10T07:44:00;24.10;57.80
31379;DHT22;61664;48.112;11.662;2023-06-10T07:46:27;24.30;57.70
31379;DHT22;61664;48.112;11.662;2023-06-10T07:48:55;24.40;57.40
31379;DHT22;61664;48.112;11.662;2023-06-10T07:51:22;24.50;56.90
31379;DHT22;61664;48.112;11.662;2023-06-10T07:53:49;24.70;57.00
31379;DHT22;61664;48.112;11.662;2023-06-10T07:56:16;24.90;57.00
31379;DHT22;61664;48.112;11.662;2023-06-10T07:58:43;25.00;56.80
31379;DHT22;61664;48.112;11.662;2023-06-10T08:01:10;25.20;56.20
31379;DHT22;61664;48.112;11.662;2023-06-10T08:03:36;25.30;55.80
31379;DHT22;61664;48.112;11.662;2023-06-10T08:06:04;25.50;55.80
31379;DHT22;61664;48.112;11.662;2023-06-10T08:08:32;25.60;55.40
31379;DHT22;61664;48.112;11.662;2023-06-10T08:10:59;25.80;55.90
31379;DHT22;61664;48.112;11.662;2023-06-10T08:13:26;25.80;55.00
31379;DHT22;61664;48.112;11.662;2023-06-10T08:15:52;26.00;55.00
31379;DHT22;61664;48.112;11.662;2023-06-10T08:18:21;26.10;55.00
31379;DHT22;61664;48.112;11.662;2023-06-10T08:20:48;26.30;54.40
31379;DHT22;61664;48.112;11.662;2023-06-10T08:23:15;26.50;54.40
31379;DHT22;61664;48.112;11.662;2023-06-10T08:25:42;26.60;54.00
31379;DHT22;61664;48.112;11.662;2023-06-10T08:28:09;26.80;54.10
31379;DHT22;61664;48.112;11.662;2023-06-10T08:30:36;26.90;53.90
31379;DHT22;61664;48.112;11.662;2023-06-10T08:33:03;27.10;53.60
31379;DHT22;61664;48.112;11.662;2023-06-10T08:35:30;27.20;53.10
31379;DHT22;61664;48.112;11.662;2023-06-10T08:37:57;27.40;53.00
31379;DHT22;61664;48.112;11.662;2023-06-10T08:40:24;27.50;53.00
31379;DHT22;61664;48.112;11.662;2023-06-10T08:43:07;27.60;52.60
31379;DHT22;61664;48.112;11.662;2023-06-10T08:46:00;27.80;51.20
31379;DHT22;61664;48.112;11.662;2023-06-10T08:48:29;28.00;51.00
31379;DHT22;61664;48.112;11.662;2023-06-10T08:50:58;28.10;51.30
31379;DHT22;61664;48.112;11.662;2023-06-10T08:53:27;28.30;51.20
31379;DHT22;61664;48.112;11.662;2023-06-10T08:55:58;28.60;51.10
31379;DHT22;61664;48.112;11.662;2023-06-10T08:58:28;29.10;50.80
31379;DHT22;61664;48.112;11.662;2023-06-10T09:00:56;29.80;51.00
31379;DHT22;61664;48.112;11.662;2023-06-10T09:03:24;30.50;50.40
31379;DHT22;61664;48.112;11.662;2023-06-10T09:05:52;31.40;49.20
31379;DHT22;61664;48.112;11.662;2023-06-10T09:08:19;32.20;48.50
31379;DHT22;61664;48.112;11.662;2023-06-10T09:10:47;32.90;47.30
31379;DHT22;61664;48.112;11.662;2023-06-10T09:13:14;33.70;46.30
31379;DHT22;61664;48.112;11.662;2023-06-10T09:15:42;34.40;45.50
31379;DHT22;61664;48.112;11.662;2023-06-10T09:18:09;35.00;44.10
31379;DHT22;61664;48.112;11.662;2023-06-10T09:20:38;35.20;42.70
31379;DHT22;61664;48.112;11.662;2023-06-10T09:23:05;35.10;41.60
31379;DHT22;61664;48.112;11.662;2023-06-10T09:25:37;34.80;41.90
31379;DHT22;61664;48.112;11.662;2023-06-10T09:28:12;34.80;41.10
31379;DHT22;61664;48.112;11.662;2023-06-10T09:30:41;35.00;41.10
31379;DHT22;61664;48.112;11.662;2023-06-10T09:33:15;35.30;42.20
31379;DHT22;61664;48.112;11.662;2023-06-10T09:35:47;35.60;39.90
31379;DHT22;61664;48.112;11.662;2023-06-10T09:38:20;35.90;39.80
31379;DHT22;61664;48.112;11.662;2023-06-10T09:40:52;36.30;39.20
31379;DHT22;61664;48.112;11.662;2023-06-10T09:43:20;36.60;39.10
31379;DHT22;61664;48.112;11.662;2023-06-10T09:45:49;37.00;40.00
31379;DHT22;61664;48.112;11.662;2023-06-10T09:48:19;37.30;39.50
31379;DHT22;61664;48.112;11.662;2023-06-10T09:50:48;37.60;39.30
31379;DHT22;61664;48.112;11.662;2023-06-10T09:53:17;37.90;37.90
31379;DHT22;61664;48.112;11.662;2023-06-10T09:55:45;38.00;37.70
31379;DHT22;61664;48.112;11.662;2023-06-10T09:58:12;38.10;38.10
31379;DHT22;61664;48.112;11.662;2023-06-10T10:00:38;38.30;37.70
31379;DHT22;61664;48.112;11.662;2023-06-10T10:03:06;38.50;37.40
31379;DHT22;61664;48.112;11.662;2023-06-10T10:05:33;38.60;37.50
31379;DHT22;61664;48.112;11.662;2023-06-10T10:08:00;38.90;37.50
31379;DHT22;61664;48.112;11.662;2023-06-10T10:10:27;39.10;37.20
31379;DHT22;61664;48.112;11.662;2023-06-10T10:12:56;39.40;36.70
31379;DHT22;61664;48.112;11.662;2023-06-10T10:15:28;39.50;35.40
31379;DHT22;61664;48.112;11.662;2023-06-10T10:18:10;39.30;34.20
31379;DHT22;61664;48.112;11.662;2023-06-10T10:20:47;38.90;33.70
31379;DHT22;61664;48.112;11.662;2023-06-10T10:23:23;38.30;33.00
31379;DHT22;61664;48.112;11.662;2023-06-10T10:25:54;37.60;33.70
31379;DHT22;61664;48.112;11.662;2023-06-10T10:28:25;36.90;34.30
31379;DHT22;61664;48.112;11.662;2023-06-10T10:31:07;36.20;34.30
31379;DHT22;61664;48.112;11.662;2023-06-10T10:34:13;35.60;34.40
31379;DHT22;61664;48.112;11.662;2023-06-10T10:36:44;35.00;36.50
31379;DHT22;61664;48.112;11.662;2023-06-10T10:39:12;34.90;37.10
31379;DHT22;61664;48.112;11.662;2023-06-10T10:41:39;34.90;36.80
31379;DHT22;61664;48.112;11.662;2023-06-10T10:44:07;34.80;36.50
31379;DHT22;61664;48.112;11.662;2023-06-10T10:46:44;34.60;36.40
31379;DHT22;61664;48.112;11.662;2023-06-10T10:49:17;34.60;36.10
31379;DHT22;61664;48.112;11.662;2023-06-10T10:51:58;34.80;37.90
31379;DHT22;61664;48.112;11.662;2023-06-10T10:54:33;35.20;35.80
31379;DHT22;61664;48.112;11.662;2023-06-10T10:57:19;35.20;34.90
31379;DHT22;61664;48.112;11.662;2023-06-10T10:59:56;35.20;35.40
31379;DHT22;61664;48.112;11.662;2023-06-10T11:02:36;35.00;35.30
31379;DHT22;61664;48.112;11.662;2023-06-10T11:05:07;34.90;35.10
31379;DHT22;61664;48.112;11.662;2023-06-10T11:07:35;34.90;37.20
31379;DHT22;61664;48.112;11.662;2023-06-10T11:10:12;34.60;36.10
31379;DHT22;61664;48.112;11.662;2023-06-10T11:15:13;34.00;34.90
31379;DHT22;61664;48.112;11.662;2023-06-10T11:20:53;33.40;35.40
31379;DHT22;61664;48.112;11.662;2023-06-10T11:23:44;33.10;35.70
31379;DHT22;61664;48.112;11.662;2023-06-10T11:31:37;32.60;36.60
31379;DHT22;61664;48.112;11.662;2023-06-10T11:34:06;32.40;36.30
31379;DHT22;61664;48.112;11.662;2023-06-10T11:36:38;32.30;37.00
31379;DHT22;61664;48.112;11.662;2023-06-10T11:39:10;32.20;36.90
31379;DHT22;61664;48.112;11.662;2023-06-10T11:41:38;32.10;37.20
31379;DHT22;61664;48.112;11.662;2023-06-10T11:44:11;32.00;37.50
31379;DHT22;61664;48.112;11.662;2023-06-10T11:46:44;32.00;36.80
31379;DHT22;61664;48.112;11.662;2023-06-10T11:49:12;31.90;37.40
31379;DHT22;61664;48.112;11.662;2023-06-10T11:51:40;31.80;36.90
31379;DHT22;61664;48.112;11.662;2023-06-10T11:54:11;31.70;37.20
31379;DHT22;61664;48.112;11.662;2023-06-10T11:56:38;31.70;37.30
31379;DHT22;61664;48.112;11.662;2023-06-10T11:59:06;31.60;37.40
31379;DHT22;61664;48.112;11.662;2023-06-10T12:01:38;31.60;37.40
31379;DHT22;61664;48.112;11.662;2023-06-10T12:04:14;31.60;36.60
31379;DHT22;61664;48.112;11.662;2023-06-10T12:12:02;31.90;36.50
31379;DHT22;61664;48.112;11.662;2023-06-10T12:14:54;32.10;37.70
31379;DHT22;61664;48.112;11.662;2023-06-10T12:20:00;32.40;36.20
31379;DHT22;61664;48.112;11.662;2023-06-10T12:22:39;32.60;37.40
31379;DHT22;61664;48.112;11.662;2023-06-10T12:25:08;32.70;35.70
31379;DHT22;61664;48.112;11.662;2023-06-10T12:27:38;32.80;36.80
31379;DHT22;61664;48.112;11.662;2023-06-10T12:30:07;32.90;36.50
31379;DHT22;61664;48.112;11.662;2023-06-10T12:32:45;33.10;36.30
31379;DHT22;61664;48.112;11.662;2023-06-10T12:35:33;33.10;34.90
31379;DHT22;61664;48.112;11.662;2023-06-10T12:38:02;33.10;35.10
31379;DHT22;61664;48.112;11.662;2023-06-10T12:40:38;33.10;35.20
31379;DHT22;61664;48.112;11.662;2023-06-10T12:43:09;33.00;35.10
31379;DHT22;61664;48.112;11.662;2023-06-10T12:45:37;32.90;35.10
31379;DHT22;61664;48.112;11.662;2023-06-10T12:48:18;32.90;35.60
31379;DHT22;61664;48.112;11.662;2023-06-10T12:50:54;32.90;36.20
31379;DHT22;61664;48.112;11.662;2023-06-10T12:53:23;33.00;35.70
31379;DHT22;61664;48.112;11.662;2023-06-10T12:55:53;33.00;36.50
31379;DHT22;61664;48.112;11.662;2023-06-10T12:58:20;32.90;35.90
31379;DHT22;61664;48.112;11.662;2023-06-10T13:00:48;32.80;36.40
31379;DHT22;61664;48.112;11.662;2023-06-10T13:03:19;32.70;36.50
31379;DHT22;61664;48.112;11.662;2023-06-10T13:05:46;32.70;36.80
31379;DHT22;61664;48.112;11.662;2023-06-10T13:08:12;32.70;37.10
31379;DHT22;61664;48.112;11.662;2023-06-10T13:10:39;32.70;37.00
31379;DHT22;61664;48.112;11.662;2023-06-10T13:13:07;32.60;36.80
31379;DHT22;61664;48.112;11.662;2023-06-10T13:15:36;32.50;36.80
31379;DHT22;61664;48.112;11.662;2023-06-10T13:18:08;32.30;36.70
31379;DHT22;61664;48.112;11.662;2023-06-10T13:20:35;32.20;37.40
31379;DHT22;61664;48.112;11.662;2023-06-10T13:23:03;32.00;37.10
31379;DHT22;61664;48.112;11.662;2023-06-10T13:25:30;31.90;37.30
31379;DHT22;61664;48.112;11.662;2023-06-10T13:27:57;31.80;37.60
31379;DHT22;61664;48.112;11.662;2023-06-10T13:30:24;31.70;37.80
31379;DHT22;61664;48.112;11.662;2023-06-10T13:32:52;31.80;38.20
31379;DHT22;61664;48.112;11.662;2023-06-10T13:35:19;31.90;38.30
31379;DHT22;61664;48.112;11.662;2023-06-10T13:37:46;32.00;38.60
31379;DHT22;61664;48.112;11.662;2023-06-10T13:40:13;32.40;39.00
31379;DHT22;61664;48.112;11.662;2023-06-10T13:42:40;32.90;38.80
31379;DHT22;61664;48.112;11.662;2023-06-10T13:45:07;33.40;38.50
31379;DHT22;61664;48.112;11.662;2023-06-10T13:47:36;34.10;38.00
31379;DHT22;61664;48.112;11.662;2023-06-10T13:50:03;34.80;37.70
31379;DHT22;61664;48.112;11.662;2023-06-10T13:52:31;35.50;37.20
31379;DHT22;61664;48.112;11.662;2023-06-10T13:54:58;36.20;36.80
31379;DHT22;61664;48.112;11.662;2023-06-10T13:57:25;36.90;36.30
31379;DHT22;61664;48.112;11.662;2023-06-10T13:59:52;37.50;35.90
31379;DHT22;61664;48.112;11.662;2023-06-10T14:02:19;38.10;35.20
31379;DHT22;61664;48.112;11.662;2023-06-10T14:04:46;38.70;34.70
31379;DHT22;61664;48.112;11.662;2023-06-10T14:07:14;39.20;34.00
31379;DHT22;61664;48.112;11.662;2023-06-10T14:09:42;39.60;33.60
31379;DHT22;61664;48.112;11.662;2023-06-10T14:12:09;39.90;33.40
31379;DHT22;61664;48.112;11.662;2023-06-10T14:14:37;40.30;32.70
31379;DHT22;61664;48.112;11.662;2023-06-10T14:17:04;40.60;32.60
31379;DHT22;61664;48.112;11.662;2023-06-10T14:19:31;40.80;32.40
31379;DHT22;61664;48.112;11.662;2023-06-10T14:21:58;41.00;32.10
31379;DHT22;61664;48.112;11.662;2023-06-10T14:24:25;41.20;32.00
31379;DHT22;61664;48.112;11.662;2023-06-10T14:26:52;41.30;31.60
31379;DHT22;61664;48.112;11.662;2023-06-10T14:29:19;41.40;31.70
31379;DHT22;61664;48.112;11.662;2023-06-10T14:31:47;41.50;31.30
31379;DHT22;61664;48.112;11.662;2023-06-10T14:34:14;41.60;31.00
31379;DHT22;61664;48.112;11.662;2023-06-10T14:36:41;41.70;30.80
31379;DHT22;61664;48.112;11.662;2023-06-10T14:39:08;41.90;30.40
31379;DHT22;61664;48.112;11.662;2023-06-10T14:41:35;42.00;30.20
31379;DHT22;61664;48.112;11.662;2023-06-10T14:44:03;42.00;30.00
31379;DHT22;61664;48.112;11.662;2023-06-10T14:46:30;42.20;30.00
31379;DHT22;61664;48.112;11.662;2023-06-10T14:48:57;42.20;29.30
31379;DHT22;61664;48.112;11.662;2023-06-10T14:51:25;42.10;29.00
31379;DHT22;61664;48.112;11.662;2023-06-10T14:53:52;41.90;29.30
31379;DHT22;61664;48.112;11.662;2023-06-10T14:56:19;41.80;29.50
31379;DHT22;61664;48.112;11.662;2023-06-10T14:58:46;41.80;29.40
31379;DHT22;61664;48.112;11.662;2023-06-10T15:01:13;41.70;29.60
31379;DHT22;61664;48.112;11.662;2023-06-10T15:03:40;41.80;29.80
31379;DHT22;61664;48.112;11.662;2023-06-10T15:06:07;41.90;29.80
31379;DHT22;61664;48.112;11.662;2023-06-10T15:08:34;41.80;29.40
31379;DHT22;61664;48.112;11.662;2023-06-10T15:11:01;41.50;29.00
31379;DHT22;61664;48.112;11.662;2023-06-10T15:13:31;40.90;28.50
31379;DHT22;61664;48.112;11.662;2023-06-10T15:15:58;40.30;28.40
31379;DHT22;61664;48.112;11.662;2023-06-10T15:18:29;39.50;28.40
31379;DHT22;61664;48.112;11.662;2023-06-10T15:20:55;38.80;28.60
31379;DHT22;61664;48.112;11.662;2023-06-10T15:23:22;38.10;28.90
31379;DHT22;61664;48.112;11.662;2023-06-10T15:25:49;37.80;29.60
31379;DHT22;61664;48.112;11.662;2023-06-10T15:28:16;37.60;30.10
31379;DHT22;61664;48.112;11.662;2023-06-10T15:30:43;37.60;30.60
31379;DHT22;61664;48.112;11.662;2023-06-10T15:33:10;37.80;30.50
31379;DHT22;61664;48.112;11.662;2023-06-10T15:35:37;37.80;30.20
31379;DHT22;61664;48.112;11.662;2023-06-10T15:38:04;37.80;30.00
31379;DHT22;61664;48.112;11.662;2023-06-10T15:40:31;37.70;29.80
31379;DHT22;61664;48.112;11.662;2023-06-10T15:42:58;37.50;30.00
31379;DHT22;61664;48.112;11.662;2023-06-10T15:45:25;37.40;30.30